Terminal Aerodrome Forecast
Issued by NWS

Home | Current Version | Previous Version | Text Only | Print | Product List | Glossary On
Versions: 1 2 3 4 5 6 7 8 9 10 11 12 13 14 15 16 17 18 19 20 21
305
FTUS42 KTBW 280520
TAFLAL
TAF
KLAL 280520Z 2806/2906 13005KT P6SM SCT200
     FM281800 07005KT P6SM VCTS BKN035CB
     FM290300 09004KT P6SM SCT040 BKN120
      AMD NOT SKED TIL 281100=

USA.gov is the U.S. government's official web portal to all federal, state and local government web resources and services.